createdAt,value
2022-09-15T00:04:47.277Z,9.10
2022-09-15T00:15:17.829Z,12.20
2022-09-15T00:25:47.803Z,12.00
2022-09-15T00:36:16.810Z,17.60
2022-09-15T00:47:03.994Z,15.30
2022-09-15T00:57:41.507Z,18.40
2022-09-15T01:08:12.521Z,23.20
2022-09-15T01:18:51.811Z,18.40
2022-09-15T01:30:00.350Z,17.60
2022-09-15T01:40:34.330Z,17.60
2022-09-15T01:51:05.052Z,15.20
2022-09-15T02:01:45.002Z,14.30
2022-09-15T02:12:20.142Z,10.90
2022-09-15T02:22:54.119Z,12.80
2022-09-15T02:33:25.350Z,13.00
2022-09-15T02:43:53.402Z,14.30
2022-09-15T02:54:21.509Z,16.30
2022-09-15T03:04:50.263Z,16.40
2022-09-15T03:15:20.362Z,21.40
2022-09-15T03:25:49.549Z,20.30
2022-09-15T03:36:17.501Z,20.20
2022-09-15T03:46:45.436Z,15.80
2022-09-15T03:57:13.413Z,19.00
2022-09-15T04:07:41.693Z,19.90
2022-09-15T04:18:09.991Z,17.10
2022-09-15T04:28:39.556Z,12.60
2022-09-15T04:39:08.475Z,13.10
2022-09-15T04:49:37.210Z,14.10
2022-09-15T05:00:07.747Z,11.00
2022-09-15T05:10:35.973Z,10.40
2022-09-15T05:21:05.362Z,8.80
2022-09-15T05:31:35.218Z,9.00
2022-09-15T05:42:03.585Z,8.90
2022-09-15T05:52:31.524Z,8.10
2022-09-15T06:02:59.639Z,9.80
2022-09-15T06:13:28.272Z,9.00
2022-09-15T06:23:58.374Z,7.60
2022-09-15T06:34:26.386Z,8.20
2022-09-15T06:44:54.407Z,8.10
2022-09-15T06:55:23.036Z,4.40
2022-09-15T07:05:51.055Z,1.70
2022-09-15T07:16:20.131Z,3.50
2022-09-15T07:26:48.296Z,3.60
2022-09-15T07:37:16.335Z,4.10
2022-09-15T07:47:44.277Z,5.60
2022-09-15T07:58:12.318Z,5.10
2022-09-15T08:08:41.405Z,4.10
2022-09-15T08:19:09.583Z,4.20
2022-09-15T08:29:37.774Z,4.60
2022-09-15T08:40:06.924Z,5.10
2022-09-15T08:50:40.195Z,7.20
2022-09-15T09:01:17.644Z,7.00
2022-09-15T09:22:25.777Z,4.10
2022-09-15T09:33:02.249Z,3.00
2022-09-15T09:43:31.941Z,3.80
2022-09-15T09:54:07.875Z,2.20
2022-09-15T10:04:35.934Z,4.00
2022-09-15T10:15:06.940Z,2.90
2022-09-15T10:25:58.742Z,2.00
2022-09-15T10:36:32.106Z,4.10
2022-09-15T10:47:14.743Z,3.30
2022-09-15T10:58:02.914Z,8.70
2022-09-15T11:09:03.658Z,10.20
2022-09-15T11:19:55.351Z,10.90
2022-09-15T11:30:25.860Z,9.00
2022-09-15T11:41:03.127Z,7.50
2022-09-15T11:51:35.765Z,8.10
2022-09-15T12:02:13.030Z,6.00
2022-09-15T12:12:44.492Z,6.30
2022-09-15T12:23:23.065Z,6.70
2022-09-15T12:33:56.507Z,13.10
2022-09-15T12:44:33.256Z,13.70
2022-09-15T12:55:04.819Z,19.70
2022-09-15T13:06:19.272Z,14.40
2022-09-15T13:16:54.078Z,16.90
2022-09-15T13:27:28.427Z,20.70
2022-09-15T13:38:26.299Z,20.00
2022-09-15T13:49:23.201Z,22.20
2022-09-15T13:59:53.374Z,23.80
2022-09-15T14:10:29.510Z,22.00
2022-09-15T14:21:05.733Z,18.80
2022-09-15T14:31:37.054Z,20.10
2022-09-15T14:42:21.860Z,19.90
2022-09-15T14:52:54.080Z,18.80
2022-09-15T15:03:32.437Z,21.60
2022-09-15T15:14:00.793Z,16.40
2022-09-15T15:24:28.841Z,14.90
2022-09-15T15:35:01.062Z,11.90
2022-09-15T15:45:31.389Z,13.00
2022-09-15T15:56:00.991Z,9.30
2022-09-15T16:06:29.115Z,8.00
2022-09-15T16:16:58.463Z,10.20
2022-09-15T16:27:26.432Z,8.40
2022-09-15T16:37:54.860Z,9.70
2022-09-15T16:48:23.046Z,8.70
2022-09-15T16:58:55.919Z,10.90
2022-09-15T17:09:27.032Z,12.00
2022-09-15T17:19:55.069Z,13.90
2022-09-15T17:30:25.943Z,11.50
2022-09-15T17:40:55.958Z,12.30
2022-09-15T17:51:25.258Z,14.30
2022-09-15T18:01:53.766Z,11.40
2022-09-15T18:12:22.000Z,12.60
2022-09-15T18:22:50.915Z,16.30
2022-09-15T18:33:21.613Z,18.80
2022-09-15T18:43:50.391Z,17.20
2022-09-15T18:54:18.502Z,15.60
2022-09-15T19:04:46.667Z,16.30
2022-09-15T19:15:15.719Z,17.10
2022-09-15T19:25:52.194Z,17.40
2022-09-15T19:36:29.153Z,17.20
2022-09-15T19:46:57.420Z,16.10
2022-09-15T19:57:27.118Z,17.60
2022-09-15T20:07:55.570Z,15.40
2022-09-15T20:18:24.313Z,20.80
2022-09-15T20:28:54.522Z,16.70
2022-09-15T20:39:24.565Z,14.70
2022-09-15T20:49:53.359Z,24.40
2022-09-15T21:00:22.287Z,23.60
2022-09-15T21:10:51.032Z,20.90
2022-09-15T21:21:23.554Z,17.10
2022-09-15T21:31:52.208Z,29.60
2022-09-15T21:42:20.696Z,23.30
2022-09-15T21:52:49.210Z,27.00
2022-09-15T22:03:18.760Z,22.60
2022-09-15T22:13:47.263Z,19.90
2022-09-15T22:24:16.480Z,15.30
2022-09-15T22:34:45.449Z,14.40
2022-09-15T22:45:14.245Z,18.70
2022-09-15T22:55:42.753Z,18.00
2022-09-15T23:06:11.352Z,20.30
2022-09-15T23:16:39.341Z,18.30
2022-09-15T23:27:07.685Z,15.40
2022-09-15T23:37:35.697Z,13.90
2022-09-15T23:48:04.036Z,15.40
2022-09-15T23:58:32.099Z,13.30
